Terminal Aerodrome Forecast
Issued by NWS Lake Charles, LA

Home | Current Version | Previous Version | Text Only | Print | Product List | Glossary On
Versions: 1 2 3 4 5 6 7 8 9 10 11 12 13 14 15 16 17 18 19
000
FTUS44 KLCH 230520
TAFLFT
TAF
KLFT 230520Z 2306/2406 VRB03KT P6SM SKC
     FM230800 VRB03KT 4SM BR SCT003
      TEMPO 2308/2310 1SM BR VV003
     FM231000 VRB03KT 2SM BR SCT003
      TEMPO 2310/2314 1/4SM FG VV003
     FM231600 15008KT P6SM SCT020=

USA.gov is the U.S. government's official web portal to all federal, state and local government web resources and services.